sensor_id;sensor_type;location;lat;lon;timestamp;pressure;altitude;pressure_sealevel;temperature;humidity
59435;BME280;45241;49.768;8.636;2023-08-08T00:00:00;100247.81;;;16.24;100.00
59435;BME280;45241;49.768;8.636;2023-08-08T00:02:26;100250.66;;;16.29;100.00
59435;BME280;45241;49.768;8.636;2023-08-08T00:04:52;100257.72;;;16.30;100.00
59435;BME280;45241;49.768;8.636;2023-08-08T00:07:18;100256.59;;;16.37;100.00
59435;BME280;45241;49.768;8.636;2023-08-08T00:09:43;100256.94;;;16.11;100.00
59435;BME280;45241;49.768;8.636;2023-08-08T00:12:09;100260.84;;;16.45;98.36
59435;BME280;45241;49.768;8.636;2023-08-08T00:14:34;100251.91;;;16.44;98.65
59435;BME280;45241;49.768;8.636;2023-08-08T00:16:59;100254.34;;;16.34;99.86
59435;BME280;45241;49.768;8.636;2023-08-08T00:19:24;100244.94;;;16.37;95.68
59435;BME280;45241;49.768;8.636;2023-08-08T00:21:50;100248.75;;;16.48;98.78
59435;BME280;45241;49.768;8.636;2023-08-08T00:24:15;100244.34;;;16.35;100.00
59435;BME280;45241;49.768;8.636;2023-08-08T00:26:40;100245.19;;;16.35;100.00
59435;BME280;45241;49.768;8.636;2023-08-08T00:29:06;100247.25;;;16.33;100.00
59435;BME280;45241;49.768;8.636;2023-08-08T00:31:31;100239.00;;;16.28;100.00
59435;BME280;45241;49.768;8.636;2023-08-08T00:33:56;100240.53;;;16.24;100.00
59435;BME280;45241;49.768;8.636;2023-08-08T00:36:22;100232.94;;;16.14;100.00
59435;BME280;45241;49.768;8.636;2023-08-08T00:38:47;100231.53;;;16.12;100.00
59435;BME280;45241;49.768;8.636;2023-08-08T00:41:14;100228.22;;;16.10;100.00
59435;BME280;45241;49.768;8.636;2023-08-08T00:43:39;100236.25;;;16.17;100.00
59435;BME280;45241;49.768;8.636;2023-08-08T00:46:04;100236.13;;;16.11;100.00
59435;BME280;45241;49.768;8.636;2023-08-08T00:48:30;100235.19;;;16.18;100.00
59435;BME280;45241;49.768;8.636;2023-08-08T00:50:56;100229.66;;;15.94;100.00
59435;BME280;45241;49.768;8.636;2023-08-08T00:53:22;100240.41;;;16.01;100.00
59435;BME280;45241;49.768;8.636;2023-08-08T00:55:48;100233.47;;;16.05;100.00
59435;BME280;45241;49.768;8.636;2023-08-08T00:58:14;100227.25;;;16.04;100.00
59435;BME280;45241;49.768;8.636;2023-08-08T01:00:40;100229.22;;;15.97;100.00
59435;BME280;45241;49.768;8.636;2023-08-08T01:03:07;100230.34;;;15.90;100.00
59435;BME280;45241;49.768;8.636;2023-08-08T01:05:36;100237.09;;;15.80;100.00
59435;BME280;45241;49.768;8.636;2023-08-08T01:08:07;100234.38;;;15.80;100.00
59435;BME280;45241;49.768;8.636;2023-08-08T01:10:39;100234.03;;;15.77;100.00
59435;BME280;45241;49.768;8.636;2023-08-08T01:13:23;100226.44;;;15.67;100.00
59435;BME280;45241;49.768;8.636;2023-08-08T01:15:49;100235.31;;;15.74;100.00
59435;BME280;45241;49.768;8.636;2023-08-08T01:18:15;100231.09;;;15.60;100.00
59435;BME280;45241;49.768;8.636;2023-08-08T01:20:43;100230.50;;;15.58;100.00
59435;BME280;45241;49.768;8.636;2023-08-08T01:23:16;100229.56;;;15.46;100.00
59435;BME280;45241;49.768;8.636;2023-08-08T01:25:44;100223.56;;;15.44;100.00
59435;BME280;45241;49.768;8.636;2023-08-08T01:28:11;100224.53;;;15.49;100.00
59435;BME280;45241;49.768;8.636;2023-08-08T01:30:36;100224.59;;;15.43;100.00
59435;BME280;45241;49.768;8.636;2023-08-08T01:33:03;100217.31;;;15.43;100.00
59435;BME280;45241;49.768;8.636;2023-08-08T01:35:30;100218.63;;;15.59;100.00
59435;BME280;45241;49.768;8.636;2023-08-08T01:38:05;100221.78;;;15.56;100.00
59435;BME280;45241;49.768;8.636;2023-08-08T01:40:34;100223.25;;;15.52;100.00
59435;BME280;45241;49.768;8.636;2023-08-08T01:43:00;100219.81;;;15.45;100.00
59435;BME280;45241;49.768;8.636;2023-08-08T01:45:26;100227.00;;;15.51;100.00
59435;BME280;45241;49.768;8.636;2023-08-08T01:47:52;100224.53;;;15.49;100.00
59435;BME280;45241;49.768;8.636;2023-08-08T01:50:18;100228.66;;;15.52;100.00
59435;BME280;45241;49.768;8.636;2023-08-08T01:52:44;100226.25;;;15.44;100.00
59435;BME280;45241;49.768;8.636;2023-08-08T01:55:09;100226.16;;;15.32;100.00
59435;BME280;45241;49.768;8.636;2023-08-08T01:57:35;100224.19;;;15.39;100.00
59435;BME280;45241;49.768;8.636;2023-08-08T02:00:00;100223.13;;;15.22;100.00
59435;BME280;45241;49.768;8.636;2023-08-08T02:02:25;100222.56;;;15.38;100.00
59435;BME280;45241;49.768;8.636;2023-08-08T02:04:51;100215.88;;;15.41;100.00
59435;BME280;45241;49.768;8.636;2023-08-08T02:07:16;100214.22;;;15.40;100.00
59435;BME280;45241;49.768;8.636;2023-08-08T02:09:41;100215.47;;;15.19;100.00
59435;BME280;45241;49.768;8.636;2023-08-08T02:12:07;100213.84;;;15.36;100.00
59435;BME280;45241;49.768;8.636;2023-08-08T02:14:32;100225.25;;;15.38;100.00
59435;BME280;45241;49.768;8.636;2023-08-08T02:16:58;100223.38;;;15.39;100.00
59435;BME280;45241;49.768;8.636;2023-08-08T02:19:23;100223.69;;;15.31;100.00
59435;BME280;45241;49.768;8.636;2023-08-08T02:21:48;100221.13;;;15.36;100.00
59435;BME280;45241;49.768;8.636;2023-08-08T02:24:14;100212.06;;;15.48;100.00
59435;BME280;45241;49.768;8.636;2023-08-08T02:26:39;100212.75;;;15.44;100.00
59435;BME280;45241;49.768;8.636;2023-08-08T02:29:04;100208.59;;;15.41;100.00
59435;BME280;45241;49.768;8.636;2023-08-08T02:31:30;100206.34;;;15.38;100.00
59435;BME280;45241;49.768;8.636;2023-08-08T02:33:55;100208.81;;;15.40;100.00
59435;BME280;45241;49.768;8.636;2023-08-08T02:36:20;100205.97;;;15.53;100.00
59435;BME280;45241;49.768;8.636;2023-08-08T02:38:46;100209.22;;;15.43;100.00
59435;BME280;45241;49.768;8.636;2023-08-08T02:41:11;100208.81;;;15.40;100.00
59435;BME280;45241;49.768;8.636;2023-08-08T02:43:36;100213.25;;;15.34;100.00
59435;BME280;45241;49.768;8.636;2023-08-08T02:46:02;100212.56;;;15.39;100.00
59435;BME280;45241;49.768;8.636;2023-08-08T02:48:29;100205.47;;;15.44;100.00
59435;BME280;45241;49.768;8.636;2023-08-08T02:50:55;100208.53;;;15.30;100.00
59435;BME280;45241;49.768;8.636;2023-08-08T02:53:20;100194.06;;;15.42;100.00
59435;BME280;45241;49.768;8.636;2023-08-08T02:55:46;100195.72;;;15.43;100.00
59435;BME280;45241;49.768;8.636;2023-08-08T02:58:12;100193.88;;;15.37;100.00
59435;BME280;45241;49.768;8.636;2023-08-08T03:00:37;100200.44;;;15.48;100.00
59435;BME280;45241;49.768;8.636;2023-08-08T03:03:02;100197.72;;;15.30;100.00
59435;BME280;45241;49.768;8.636;2023-08-08T03:05:28;100192.31;;;15.30;100.00
59435;BME280;45241;49.768;8.636;2023-08-08T03:07:53;100197.31;;;15.26;100.00
59435;BME280;45241;49.768;8.636;2023-08-08T03:10:18;100195.44;;;15.26;100.00
59435;BME280;45241;49.768;8.636;2023-08-08T03:12:44;100190.50;;;15.23;100.00
59435;BME280;45241;49.768;8.636;2023-08-08T03:15:09;100203.50;;;15.33;100.00
59435;BME280;45241;49.768;8.636;2023-08-08T03:17:35;100204.09;;;15.35;100.00
59435;BME280;45241;49.768;8.636;2023-08-08T03:20:01;100200.72;;;15.40;100.00
59435;BME280;45241;49.768;8.636;2023-08-08T03:22:27;100197.00;;;15.16;100.00
59435;BME280;45241;49.768;8.636;2023-08-08T03:24:53;100198.81;;;15.22;100.00
59435;BME280;45241;49.768;8.636;2023-08-08T03:27:18;100193.66;;;15.20;100.00
59435;BME280;45241;49.768;8.636;2023-08-08T03:29:43;100202.72;;;15.26;100.00
59435;BME280;45241;49.768;8.636;2023-08-08T03:32:08;100199.56;;;15.11;100.00
59435;BME280;45241;49.768;8.636;2023-08-08T03:34:34;100202.63;;;15.14;100.00
59435;BME280;45241;49.768;8.636;2023-08-08T03:36:59;100207.88;;;15.09;100.00
59435;BME280;45241;49.768;8.636;2023-08-08T03:39:25;100202.03;;;15.12;100.00
59435;BME280;45241;49.768;8.636;2023-08-08T03:41:50;100204.44;;;15.20;100.00
59435;BME280;45241;49.768;8.636;2023-08-08T03:44:15;100204.06;;;15.17;100.00
59435;BME280;45241;49.768;8.636;2023-08-08T03:46:40;100202.94;;;15.24;100.00
59435;BME280;45241;49.768;8.636;2023-08-08T03:49:06;100209.97;;;15.07;100.00
59435;BME280;45241;49.768;8.636;2023-08-08T03:51:31;100208.91;;;15.08;100.00
59435;BME280;45241;49.768;8.636;2023-08-08T03:53:56;100211.16;;;15.11;100.00
59435;BME280;45241;49.768;8.636;2023-08-08T03:56:22;100211.16;;;15.11;100.00
59435;BME280;45241;49.768;8.636;2023-08-08T03:58:47;100210.13;;;15.12;100.00
59435;BME280;45241;49.768;8.636;2023-08-08T04:01:13;100212.50;;;15.02;100.00
59435;BME280;45241;49.768;8.636;2023-08-08T04:03:38;100212.06;;;15.05;100.00
59435;BME280;45241;49.768;8.636;2023-08-08T04:06:03;100218.91;;;15.08;100.00
59435;BME280;45241;49.768;8.636;2023-08-08T04:08:29;100212.22;;;15.10;100.00
59435;BME280;45241;49.768;8.636;2023-08-08T04:10:54;100212.72;;;15.01;100.00
59435;BME280;45241;49.768;8.636;2023-08-08T04:13:20;100208.31;;;15.06;100.00
59435;BME280;45241;49.768;8.636;2023-08-08T04:15:45;100211.41;;;15.10;100.00
59435;BME280;45241;49.768;8.636;2023-08-08T04:18:11;100206.78;;;15.17;100.00
59435;BME280;45241;49.768;8.636;2023-08-08T04:20:36;100208.84;;;15.15;100.00
59435;BME280;45241;49.768;8.636;2023-08-08T04:23:01;100205.03;;;15.04;100.00
59435;BME280;45241;49.768;8.636;2023-08-08T04:25:27;100207.31;;;15.01;100.00
59435;BME280;45241;49.768;8.636;2023-08-08T04:27:53;100206.78;;;14.92;100.00
59435;BME280;45241;49.768;8.636;2023-08-08T04:30:19;100212.56;;;14.95;100.00
59435;BME280;45241;49.768;8.636;2023-08-08T04:32:45;100211.66;;;15.02;100.00
59435;BME280;45241;49.768;8.636;2023-08-08T04:35:10;100209.75;;;15.09;100.00
59435;BME280;45241;49.768;8.636;2023-08-08T04:37:35;100213.00;;;14.92;100.00
59435;BME280;45241;49.768;8.636;2023-08-08T04:40:01;100213.50;;;14.83;100.00
59435;BME280;45241;49.768;8.636;2023-08-08T04:42:26;100218.00;;;14.89;100.00
59435;BME280;45241;49.768;8.636;2023-08-08T04:44:51;100212.44;;;14.84;100.00
59435;BME280;45241;49.768;8.636;2023-08-08T04:47:17;100210.63;;;14.78;100.00
59435;BME280;45241;49.768;8.636;2023-08-08T04:49:42;100214.81;;;14.98;100.00
59435;BME280;45241;49.768;8.636;2023-08-08T04:52:07;100213.22;;;14.91;100.00
59435;BME280;45241;49.768;8.636;2023-08-08T04:54:33;100214.22;;;14.96;100.00
59435;BME280;45241;49.768;8.636;2023-08-08T04:56:58;100210.13;;;14.87;100.00
59435;BME280;45241;49.768;8.636;2023-08-08T04:59:23;100209.16;;;14.82;100.00
59435;BME280;45241;49.768;8.636;2023-08-08T05:01:48;100204.38;;;14.52;100.00
59435;BME280;45241;49.768;8.636;2023-08-08T05:04:14;100198.56;;;14.80;100.00
59435;BME280;45241;49.768;8.636;2023-08-08T05:06:39;100210.09;;;14.94;100.00
59435;BME280;45241;49.768;8.636;2023-08-08T05:09:04;100206.78;;;14.92;100.00
59435;BME280;45241;49.768;8.636;2023-08-08T05:11:30;100210.09;;;14.94;100.00
59435;BME280;45241;49.768;8.636;2023-08-08T05:13:55;100208.44;;;15.18;100.00
59435;BME280;45241;49.768;8.636;2023-08-08T05:16:20;100211.06;;;15.24;100.00
59435;BME280;45241;49.768;8.636;2023-08-08T05:18:45;100197.88;;;15.35;100.00
59435;BME280;45241;49.768;8.636;2023-08-08T05:21:11;100190.81;;;15.34;100.00
59435;BME280;45241;49.768;8.636;2023-08-08T05:23:36;100196.97;;;15.41;100.00
59435;BME280;45241;49.768;8.636;2023-08-08T05:26:02;100198.84;;;15.40;100.00
59435;BME280;45241;49.768;8.636;2023-08-08T05:28:28;100200.19;;;15.56;100.00
59435;BME280;45241;49.768;8.636;2023-08-08T05:30:53;100203.59;;;15.45;100.00
59435;BME280;45241;49.768;8.636;2023-08-08T05:33:19;100207.66;;;15.54;100.00
59435;BME280;45241;49.768;8.636;2023-08-08T05:35:44;100199.16;;;15.50;100.00
59435;BME280;45241;49.768;8.636;2023-08-08T05:38:10;100197.25;;;15.58;100.00
59435;BME280;45241;49.768;8.636;2023-08-08T05:40:35;100198.22;;;15.63;100.00
59435;BME280;45241;49.768;8.636;2023-08-08T05:43:04;100205.88;;;15.66;100.00
59435;BME280;45241;49.768;8.636;2023-08-08T05:45:29;100203.34;;;15.71;100.00
59435;BME280;45241;49.768;8.636;2023-08-08T05:47:54;100198.81;;;15.83;100.00
59435;BME280;45241;49.768;8.636;2023-08-08T05:50:21;100199.06;;;15.82;100.00
59435;BME280;45241;49.768;8.636;2023-08-08T05:52:46;100191.22;;;15.92;100.00
59435;BME280;45241;49.768;8.636;2023-08-08T05:55:12;100195.88;;;15.85;100.00
59435;BME280;45241;49.768;8.636;2023-08-08T05:57:37;100196.13;;;15.83;100.00
59435;BME280;45241;49.768;8.636;2023-08-08T06:00:04;100200.78;;;15.95;100.00
59435;BME280;45241;49.768;8.636;2023-08-08T06:02:30;100199.56;;;15.91;100.00
59435;BME280;45241;49.768;8.636;2023-08-08T06:04:55;100199.84;;;16.01;100.00
59435;BME280;45241;49.768;8.636;2023-08-08T06:07:21;100199.25;;;15.99;100.00
59435;BME280;45241;49.768;8.636;2023-08-08T06:09:46;100203.78;;;16.17;100.00
59435;BME280;45241;49.768;8.636;2023-08-08T06:12:11;100214.56;;;16.05;100.00
59435;BME280;45241;49.768;8.636;2023-08-08T06:14:37;100210.78;;;16.24;100.00
59435;BME280;45241;49.768;8.636;2023-08-08T06:17:02;100214.59;;;16.17;100.00
59435;BME280;45241;49.768;8.636;2023-08-08T06:19:28;100216.97;;;16.13;100.00
59435;BME280;45241;49.768;8.636;2023-08-08T06:21:53;100213.56;;;16.18;100.00
59435;BME280;45241;49.768;8.636;2023-08-08T06:24:18;100215.38;;;16.24;100.00
59435;BME280;45241;49.768;8.636;2023-08-08T06:26:44;100214.94;;;16.08;100.00
59435;BME280;45241;49.768;8.636;2023-08-08T06:29:09;100214.94;;;16.38;100.00
59435;BME280;45241;49.768;8.636;2023-08-08T06:31:34;100221.69;;;16.48;100.00
59435;BME280;45241;49.768;8.636;2023-08-08T06:34:00;100218.72;;;16.37;100.00
59435;BME280;45241;49.768;8.636;2023-08-08T06:36:25;100221.34;;;16.56;100.00
59435;BME280;45241;49.768;8.636;2023-08-08T06:38:50;100214.53;;;16.53;100.00
59435;BME280;45241;49.768;8.636;2023-08-08T06:41:15;100213.78;;;16.46;100.00
59435;BME280;45241;49.768;8.636;2023-08-08T06:43:41;100216.63;;;16.51;100.00
59435;BME280;45241;49.768;8.636;2023-08-08T06:46:06;100211.63;;;16.66;100.00
59435;BME280;45241;49.768;8.636;2023-08-08T06:48:31;100206.75;;;16.75;100.00
59435;BME280;45241;49.768;8.636;2023-08-08T06:50:57;100213.00;;;16.87;100.00
59435;BME280;45241;49.768;8.636;2023-08-08T06:53:22;100196.41;;;16.95;100.00
59435;BME280;45241;49.768;8.636;2023-08-08T06:55:48;100203.47;;;16.96;100.00
59435;BME280;45241;49.768;8.636;2023-08-08T06:58:13;100202.41;;;16.97;100.00
59435;BME280;45241;49.768;8.636;2023-08-08T07:00:38;100201.81;;;17.07;100.00
59435;BME280;45241;49.768;8.636;2023-08-08T07:03:04;100201.47;;;16.92;100.00
59435;BME280;45241;49.768;8.636;2023-08-08T07:05:30;100201.34;;;16.98;100.00
59435;BME280;45241;49.768;8.636;2023-08-08T07:07:55;100207.59;;;17.11;99.15
59435;BME280;45241;49.768;8.636;2023-08-08T07:10:21;100207.00;;;17.09;95.72
59435;BME280;45241;49.768;8.636;2023-08-08T07:12:46;100204.78;;;17.17;95.11
59435;BME280;45241;49.768;8.636;2023-08-08T07:15:12;100201.97;;;17.12;93.17
59435;BME280;45241;49.768;8.636;2023-08-08T07:17:37;100202.19;;;17.22;93.73
59435;BME280;45241;49.768;8.636;2023-08-08T07:20:03;100198.41;;;17.23;93.27
59435;BME280;45241;49.768;8.636;2023-08-08T07:22:30;100194.78;;;17.29;91.67
59435;BME280;45241;49.768;8.636;2023-08-08T07:24:56;100199.22;;;17.47;93.76
59435;BME280;45241;49.768;8.636;2023-08-08T07:27:21;100194.25;;;17.68;97.32
59435;BME280;45241;49.768;8.636;2023-08-08T07:29:47;100198.88;;;17.79;94.36
59435;BME280;45241;49.768;8.636;2023-08-08T07:32:12;100206.41;;;17.77;94.59
59435;BME280;45241;49.768;8.636;2023-08-08T07:34:37;100199.13;;;17.77;91.52
59435;BME280;45241;49.768;8.636;2023-08-08T07:37:03;100206.41;;;17.65;92.98
59435;BME280;45241;49.768;8.636;2023-08-08T07:39:28;100205.78;;;17.86;92.16
59435;BME280;45241;49.768;8.636;2023-08-08T07:41:54;100195.34;;;17.78;94.57
59435;BME280;45241;49.768;8.636;2023-08-08T07:44:19;100197.13;;;18.01;95.68
59435;BME280;45241;49.768;8.636;2023-08-08T07:46:45;100197.38;;;18.00;92.69
59435;BME280;45241;49.768;8.636;2023-08-08T07:49:10;100197.16;;;17.89;91.02
59435;BME280;45241;49.768;8.636;2023-08-08T07:51:35;100192.91;;;18.05;92.24
59435;BME280;45241;49.768;8.636;2023-08-08T07:54:01;100197.34;;;18.11;91.92
59435;BME280;45241;49.768;8.636;2023-08-08T07:56:26;100191.13;;;17.99;91.57
59435;BME280;45241;49.768;8.636;2023-08-08T07:58:51;100191.44;;;18.14;95.02
59435;BME280;45241;49.768;8.636;2023-08-08T08:01:17;100185.13;;;18.26;92.86
59435;BME280;45241;49.768;8.636;2023-08-08T08:03:43;100179.56;;;18.32;91.71
59435;BME280;45241;49.768;8.636;2023-08-08T08:06:08;100181.72;;;18.30;89.33
59435;BME280;45241;49.768;8.636;2023-08-08T08:08:34;100177.47;;;18.51;91.63
59435;BME280;45241;49.768;8.636;2023-08-08T08:11:00;100173.34;;;18.65;86.51
59435;BME280;45241;49.768;8.636;2023-08-08T08:13:26;100171.91;;;18.74;84.56
59435;BME280;45241;49.768;8.636;2023-08-08T08:15:51;100173.25;;;18.89;84.32
59435;BME280;45241;49.768;8.636;2023-08-08T08:18:16;100169.19;;;18.91;77.20
59435;BME280;45241;49.768;8.636;2023-08-08T08:20:43;100171.44;;;19.11;74.19
59435;BME280;45241;49.768;8.636;2023-08-08T08:23:09;100173.56;;;19.09;76.75
59435;BME280;45241;49.768;8.636;2023-08-08T08:25:35;100170.56;;;19.27;74.81
59435;BME280;45241;49.768;8.636;2023-08-08T08:28:00;100171.06;;;19.24;74.24
59435;BME280;45241;49.768;8.636;2023-08-08T08:30:25;100179.41;;;19.01;72.52
59435;BME280;45241;49.768;8.636;2023-08-08T08:32:52;100168.41;;;19.29;73.48
59435;BME280;45241;49.768;8.636;2023-08-08T08:35:18;100172.53;;;19.32;72.45
59435;BME280;45241;49.768;8.636;2023-08-08T08:37:43;100168.81;;;19.38;74.25
59435;BME280;45241;49.768;8.636;2023-08-08T08:40:09;100179.31;;;19.13;71.36
59435;BME280;45241;49.768;8.636;2023-08-08T08:42:35;100179.03;;;19.31;73.33
59435;BME280;45241;49.768;8.636;2023-08-08T08:45:02;100174.53;;;19.20;72.41
59435;BME280;45241;49.768;8.636;2023-08-08T08:47:30;100171.34;;;19.45;75.00
59435;BME280;45241;49.768;8.636;2023-08-08T08:49:56;100170.97;;;19.19;69.94
59435;BME280;45241;49.768;8.636;2023-08-08T08:52:22;100176.06;;;19.32;71.64
59435;BME280;45241;49.768;8.636;2023-08-08T08:54:48;100174.56;;;19.42;69.22
59435;BME280;45241;49.768;8.636;2023-08-08T08:57:14;100170.16;;;19.35;71.68
59435;BME280;45241;49.768;8.636;2023-08-08T08:59:39;100165.38;;;19.64;70.96
59435;BME280;45241;49.768;8.636;2023-08-08T09:02:04;100167.84;;;19.66;72.39
59435;BME280;45241;49.768;8.636;2023-08-08T09:04:32;100173.47;;;19.59;70.59
59435;BME280;45241;49.768;8.636;2023-08-08T09:06:58;100177.13;;;19.70;72.69
59435;BME280;45241;49.768;8.636;2023-08-08T09:09:24;100174.56;;;19.42;69.44
59435;BME280;45241;49.768;8.636;2023-08-08T09:11:51;100166.63;;;19.57;68.05
59435;BME280;45241;49.768;8.636;2023-08-08T09:14:23;100166.81;;;19.50;67.29
59435;BME280;45241;49.768;8.636;2023-08-08T09:16:50;100163.13;;;19.78;70.51
59435;BME280;45241;49.768;8.636;2023-08-08T09:19:18;100165.03;;;19.78;69.92
59435;BME280;45241;49.768;8.636;2023-08-08T09:21:43;100172.97;;;19.84;66.96
59435;BME280;45241;49.768;8.636;2023-08-08T09:24:09;100161.19;;;19.57;66.40
59435;BME280;45241;49.768;8.636;2023-08-08T09:26:34;100161.53;;;19.82;65.42
59435;BME280;45241;49.768;8.636;2023-08-08T09:29:01;100147.38;;;19.80;64.69
59435;BME280;45241;49.768;8.636;2023-08-08T09:31:27;100150.47;;;19.89;66.14
59435;BME280;45241;49.768;8.636;2023-08-08T09:34:00;100150.22;;;19.90;64.18
59435;BME280;45241;49.768;8.636;2023-08-08T09:36:25;100142.59;;;20.14;64.59
59435;BME280;45241;49.768;8.636;2023-08-08T09:38:52;100148.97;;;20.25;64.22
59435;BME280;45241;49.768;8.636;2023-08-08T09:41:19;100145.75;;;20.33;65.39
59435;BME280;45241;49.768;8.636;2023-08-08T09:43:45;100141.34;;;20.54;63.21
59435;BME280;45241;49.768;8.636;2023-08-08T09:46:10;100155.63;;;20.66;62.85
59435;BME280;45241;49.768;8.636;2023-08-08T09:48:38;100146.69;;;20.71;62.42
59435;BME280;45241;49.768;8.636;2023-08-08T09:51:05;100151.84;;;20.67;65.12
59435;BME280;45241;49.768;8.636;2023-08-08T09:53:31;100146.16;;;20.74;62.95
59435;BME280;45241;49.768;8.636;2023-08-08T09:55:57;100146.03;;;20.91;64.07
59435;BME280;45241;49.768;8.636;2023-08-08T09:58:26;100133.63;;;20.73;62.57
59435;BME280;45241;49.768;8.636;2023-08-08T10:00:51;100155.41;;;20.73;61.96
59435;BME280;45241;49.768;8.636;2023-08-08T10:03:18;100144.47;;;20.68;63.04
59435;BME280;45241;49.768;8.636;2023-08-08T10:05:44;100150.66;;;20.90;64.22
59435;BME280;45241;49.768;8.636;2023-08-08T10:08:09;100141.53;;;21.11;63.00
59435;BME280;45241;49.768;8.636;2023-08-08T10:10:39;100145.34;;;21.10;64.18
59435;BME280;45241;49.768;8.636;2023-08-08T10:13:06;100142.75;;;20.62;61.63
59435;BME280;45241;49.768;8.636;2023-08-08T10:15:32;100137.84;;;20.91;62.03
59435;BME280;45241;49.768;8.636;2023-08-08T10:17:57;100131.28;;;21.29;64.80
59435;BME280;45241;49.768;8.636;2023-08-08T10:20:26;100134.84;;;21.34;62.94
59435;BME280;45241;49.768;8.636;2023-08-08T10:22:53;100123.47;;;21.48;62.47
59435;BME280;45241;49.768;8.636;2023-08-08T10:25:23;100136.97;;;21.69;62.30
59435;BME280;45241;49.768;8.636;2023-08-08T10:27:49;100132.47;;;21.43;60.07
59435;BME280;45241;49.768;8.636;2023-08-08T10:30:14;100138.75;;;21.49;61.31
59435;BME280;45241;49.768;8.636;2023-08-08T10:32:45;100135.56;;;21.62;62.23
59435;BME280;45241;49.768;8.636;2023-08-08T10:35:14;100134.28;;;21.85;61.27
59435;BME280;45241;49.768;8.636;2023-08-08T10:37:40;100138.03;;;21.63;60.52
59435;BME280;45241;49.768;8.636;2023-08-08T10:40:06;100133.56;;;21.47;58.71
59435;BME280;45241;49.768;8.636;2023-08-08T10:42:40;100126.47;;;21.46;58.73
59435;BME280;45241;49.768;8.636;2023-08-08T10:45:10;100114.09;;;21.91;58.73
59435;BME280;45241;49.768;8.636;2023-08-08T10:47:36;100130.28;;;22.13;58.97
59435;BME280;45241;49.768;8.636;2023-08-08T10:50:08;100132.19;;;22.12;56.24
59435;BME280;45241;49.768;8.636;2023-08-08T10:52:54;100114.13;;;21.96;56.37
59435;BME280;45241;49.768;8.636;2023-08-08T10:57:54;100129.16;;;21.98;56.42
59435;BME280;45241;49.768;8.636;2023-08-08T11:00:20;100119.06;;;22.09;57.85
59435;BME280;45241;49.768;8.636;2023-08-08T11:02:48;100124.00;;;22.12;59.05
59435;BME280;45241;49.768;8.636;2023-08-08T11:05:14;100128.94;;;22.20;58.08
59435;BME280;45241;49.768;8.636;2023-08-08T11:07:39;100110.41;;;22.68;57.43
59435;BME280;45241;49.768;8.636;2023-08-08T11:10:05;100116.72;;;22.58;55.33
59435;BME280;45241;49.768;8.636;2023-08-08T11:12:31;100117.72;;;22.12;54.61
59435;BME280;45241;49.768;8.636;2023-08-08T11:14:56;100127.84;;;22.26;55.40
59435;BME280;45241;49.768;8.636;2023-08-08T11:17:22;100116.34;;;22.14;54.92
59435;BME280;45241;49.768;8.636;2023-08-08T11:19:48;100122.88;;;21.98;54.74
59435;BME280;45241;49.768;8.636;2023-08-08T11:22:13;100118.25;;;22.09;55.65
59435;BME280;45241;49.768;8.636;2023-08-08T11:24:38;100116.97;;;22.37;55.67
59435;BME280;45241;49.768;8.636;2023-08-08T11:27:04;100120.16;;;22.18;55.04
59435;BME280;45241;49.768;8.636;2023-08-08T11:29:29;100121.28;;;22.27;56.29
59435;BME280;45241;49.768;8.636;2023-08-08T11:31:56;100118.78;;;21.95;55.51
59435;BME280;45241;49.768;8.636;2023-08-08T11:34:22;100109.50;;;21.96;54.15
59435;BME280;45241;49.768;8.636;2023-08-08T11:36:47;100115.53;;;22.09;55.07
59435;BME280;45241;49.768;8.636;2023-08-08T11:39:13;100110.09;;;22.24;57.13
59435;BME280;45241;49.768;8.636;2023-08-08T11:41:40;100108.22;;;22.70;56.77
59435;BME280;45241;49.768;8.636;2023-08-08T11:44:06;100104.94;;;22.53;56.56
59435;BME280;45241;49.768;8.636;2023-08-08T11:46:33;100104.66;;;22.90;57.61
59435;BME280;45241;49.768;8.636;2023-08-08T11:49:05;100097.25;;;22.96;55.54
59435;BME280;45241;49.768;8.636;2023-08-08T11:51:32;100099.19;;;22.85;55.93
59435;BME280;45241;49.768;8.636;2023-08-08T11:53:59;100099.75;;;22.62;54.03
59435;BME280;45241;49.768;8.636;2023-08-08T11:56:24;100092.91;;;22.44;54.65
59435;BME280;45241;49.768;8.636;2023-08-08T11:58:50;100098.38;;;22.74;54.41
59435;BME280;45241;49.768;8.636;2023-08-08T12:01:25;100107.69;;;22.63;53.54
59435;BME280;45241;49.768;8.636;2023-08-08T12:03:51;100085.81;;;22.73;54.49
59435;BME280;45241;49.768;8.636;2023-08-08T12:06:17;100084.69;;;23.00;56.36
59435;BME280;45241;49.768;8.636;2023-08-08T12:08:44;100091.00;;;22.85;54.23
59435;BME280;45241;49.768;8.636;2023-08-08T12:11:10;100094.31;;;22.62;54.73
59435;BME280;45241;49.768;8.636;2023-08-08T12:13:37;100098.41;;;22.59;56.33
59435;BME280;45241;49.768;8.636;2023-08-08T12:16:08;100098.38;;;22.64;55.08
59435;BME280;45241;49.768;8.636;2023-08-08T12:18:35;100092.09;;;22.53;54.83
59435;BME280;45241;49.768;8.636;2023-08-08T12:21:02;100092.09;;;22.69;53.70
59435;BME280;45241;49.768;8.636;2023-08-08T12:23:28;100097.28;;;22.70;50.64
59435;BME280;45241;49.768;8.636;2023-08-08T12:25:53;100091.28;;;22.63;51.15
59435;BME280;45241;49.768;8.636;2023-08-08T12:28:18;100097.56;;;22.79;50.17
59435;BME280;45241;49.768;8.636;2023-08-08T12:30:44;100092.03;;;23.14;50.44
59435;BME280;45241;49.768;8.636;2023-08-08T12:33:09;100095.03;;;23.13;51.88
59435;BME280;45241;49.768;8.636;2023-08-08T12:35:34;100090.13;;;23.20;50.42
59435;BME280;45241;49.768;8.636;2023-08-08T12:38:00;100082.75;;;23.15;49.58
59435;BME280;45241;49.768;8.636;2023-08-08T12:40:25;100088.09;;;23.51;49.08